Latest Coastal Weather Observations for Mornington Island Airport

IDQ60701

Issued at 8:45 pm EST Tuesday 30 September 2014 (issued every 10 minutes, with the page automatically refreshed every 10 minutes)

About coastal observations | Map of coastal stations | Coastal observations for QLD | Marine services | Other Formats
Station Details ID: 029182 Name: MORNINGTON ISLAND AIRPORT Lat: -16.66 Lon: 139.17 Height: 9.0 m
Data from the previous 72 hours. | See also: Recent months at Mornington Island Airport
Date/Time
EST
Temp

°C
Wind Pressure Rain
since 9am
mm
Weather Cloud Vis
km
Sea
Height
m
Swell
Dir
 
Speed
knots
Gust
knots
hPa Trend Height
m
Period
s
Dir
30/08:30pm 25.2 NNW 10 14 1014.6 - 0.0 - - - - - - -
30/08:00pm 25.1 NNW 9 11 1014.5 - 0.0 - - - - - - -
30/07:30pm 25.2 N 8 11 1014.4 - 0.0 - - - - - - -
30/07:00pm 25.2 NNW 8 10 1014.4 - 0.0 - - - - - - -
30/06:30pm 25.5 N 9 12 1014.1 - 0.0 - - - - - - -
30/06:00pm 26.1 N 9 14 1013.9 - 0.0 - - - - - - -
30/05:30pm 26.7 N 11 15 1013.5 - 0.0 - - - - - - -
30/05:00pm 27.6 N 11 14 1013.5 - 0.0 - - - - - - -
30/04:30pm 27.3 N 12 16 1013.4 - 0.0 - - - - - - -
30/04:00pm 27.6 N 12 16 1013.3 - 0.0 - - - - - - -
30/03:30pm 27.9 N 13 16 1013.4 - 0.0 - - - - - - -
30/03:00pm 28.9 N 12 16 1013.6 - 0.0 - - - - - - -
30/02:30pm 28.3 N 13 18 1013.8 - 0.0 - - - - - - -
30/02:00pm 29.6 N 13 17 1013.9 - 0.0 - - - - - - -
30/01:30pm 29.5 N 13 20 1014.3 - 0.0 - - - - - - -
30/01:00pm 28.9 N 14 18 1014.7 - 0.0 - - - - - - -
30/12:30pm 29.4 N 13 18 1015.1 - 0.0 - - - - - - -
30/12:00pm 30.1 N 12 18 1015.6 - 0.0 - - - - - - -
30/11:30am 29.7 NNE 12 16 1016.1 - 0.0 - - - - - - -
30/11:00am 29.9 NE 14 18 1016.4 - 0.0 - - - - - - -
30/10:30am 29.0 NE 15 21 1016.4 - 0.0 - - - - - - -
30/10:00am 29.6 NE 12 18 1016.4 - 0.0 - - - - - - -
30/09:30am 27.7 NNE 12 17 1016.6 - 0.0 - - - - - - -
30/09:00am 27.9 NNE 12 17 1016.5 - 0.0 - - - - - - -
30/08:30am 27.1 NNE 11 15 1016.1 - 0.0 - - - - - - -
30/08:00am 26.5 NE 8 12 1015.9 - 0.0 - - - - - - -
30/07:30am 25.0 NNE 4 7 1015.5 - 0.0 - - - - - - -
30/07:00am 22.8 ENE 5 7 1015.1 - 0.0 - - - - - - -
30/06:30am 22.5 ENE 6 9 1014.8 - 0.0 - - - - - - -
30/06:00am 22.6 ENE 6 8 1014.2 - 0.0 - - - - - - -
30/05:30am 23.0 ENE 10 13 1014.0 - 0.0 - - - - - - -
30/05:00am 24.9 WSW 7 9 1012.6 - 0.0 - - - - - - -
30/04:30am 24.8 W 6 8 1012.4 - 0.0 - - - - - - -
30/04:00am 24.8 W 7 9 1012.4 - 0.0 - - - - - - -
30/03:30am 24.9 W 8 11 1012.3 - 0.0 - - - - - - -
30/03:00am 24.9 W 8 10 1012.5 - 0.0 - - - - - - -
30/02:30am 24.8 W 8 10 1012.6 - 0.0 - - - - - - -
30/02:00am 24.9 W 8 11 1012.8 - 0.0 - - - - - - -
30/01:30am 25.0 W 8 11 1013.0 - 0.0 - - - - - - -
30/01:00am 24.9 WNW 8 11 1013.5 - 0.0 - - - - - - -
30/12:30am 24.9 WNW 10 13 1013.6 - 0.0 - - - - - - -
30/12:00am 24.9 WNW 9 11 1014.0 - 0.0 - - - - - - -
 
Date/Time
EST
Temp

°C
Wind Pressure Rain
since 9am
mm
Weather Cloud Vis
km
Sea
Height
m
Swell
Dir
 
Speed
knots
Gust
knots
hPa Trend Height
m
Period
s
Dir
29/11:30pm 24.8 WNW 10 11 1014.2 - 0.0 - - - - - - -
29/11:00pm 25.0 NW 9 11 1014.5 - 0.0 - - - - - - -
29/10:30pm 25.0 NW 10 12 1014.6 - 0.0 - - - - - - -
29/10:00pm 25.0 NW 9 12 1014.6 - 0.0 - - - - - - -
29/09:30pm 25.2 NW 9 11 1014.5 - 0.0 - - - - - - -
29/09:00pm 25.2 NW 9 10 1014.4 - 0.0 - - - - - - -
29/08:30pm 25.0 NNW 7 9 1014.2 - 0.0 - - - - - - -
29/08:00pm 24.8 NNW 5 7 1014.1 - 0.0 - - - - - - -
29/07:30pm 24.9 N 5 7 1014.0 - 0.0 - - - - - - -
29/07:00pm 25.3 N 6 9 1013.7 - 0.0 - - - - - - -
29/06:30pm 25.6 N 8 11 1013.2 - 0.0 - - - - - - -
29/06:00pm 26.3 N 10 13 1012.9 - 0.0 - - - - - - -
29/05:30pm 27.1 N 11 15 1012.5 - 0.0 - - - - - - -
29/05:00pm 27.4 N 11 16 1012.4 - 0.0 - - - - - - -
29/04:30pm 27.8 N 11 15 1012.2 - 0.0 - - - - - - -
29/04:00pm 28.1 N 12 17 1012.4 - 0.0 - - - - - - -
29/03:30pm 28.6 N 13 19 1012.4 - 0.0 - - - - - - -
29/03:00pm 29.6 N 13 18 1012.7 - 0.0 - - - - - - -
29/02:30pm 29.9 N 14 20 1012.9 - 0.0 - - - - - - -
29/02:00pm 29.1 N 14 19 1013.1 - 0.0 - - - - - - -
29/01:30pm 29.6 N 13 20 1013.4 - 0.0 - - - - - - -
29/01:00pm 29.5 N 14 20 1014.0 - 0.0 - - - - - - -
29/12:30pm 29.0 N 14 19 1014.5 - 0.0 - - - - - - -
29/12:00pm 28.9 N 13 19 1014.9 - 0.0 - - - - - - -
29/11:30am 29.5 N 13 19 1015.2 - 0.0 - - - - - - -
29/11:00am 29.5 N 13 19 1015.5 - 0.0 - - - - - - -
29/10:30am 27.8 NNE 13 19 1015.5 - 0.0 - - - - - - -
29/10:00am 27.3 N 15 21 1015.3 - 0.0 - - - - - - -
29/09:30am 28.0 NNE 15 23 1015.4 - 0.0 - - - - - - -
29/09:00am 26.9 N 14 18 1015.1 - 0.0 - - - - - - -
29/08:30am 26.4 N 10 16 1015.1 - 0.0 - - - - - - -
29/08:00am 27.2 ENE 5 8 1014.9 - 0.0 - - - - - - -
29/07:30am 25.6 NE 6 8 1014.4 - 0.0 - - - - - - -
29/07:00am 24.5 E 5 8 1014.1 - 0.0 - - - - - - -
29/06:30am 24.8 ENE 7 11 1013.3 - 0.0 - - - - - - -
29/06:08am 24.6 ENE 15 25 1012.8 - 0.0 - - - - - - -
29/06:06am 24.4 ENE 15 19 1012.9 - 0.0 - - - - - - -
29/06:00am 24.7 WNW 7 9 1011.8 - 0.0 - - - - - - -
29/05:30am 24.9 W 6 8 1011.7 - 0.0 - - - - - - -
29/05:00am 24.9 W 6 8 1011.3 - 0.0 - - - - - - -
29/04:30am 24.8 W 6 8 1011.0 - 0.0 - - - - - - -
29/04:00am 24.8 W 5 7 1011.1 - 0.0 - - - - - - -
29/03:30am 24.7 W 6 8 1011.1 - 0.0 - - - - - - -
29/03:00am 24.7 WNW 7 9 1011.2 - 0.0 - - - - - - -
29/02:30am 24.8 W 7 9 1011.5 - 0.0 - - - - - - -
29/02:00am 24.8 WNW 7 9 1012.0 - 0.0 - - - - - - -
29/01:30am 24.7 W 7 9 1012.3 - 0.0 - - - - - - -
29/01:00am 24.7 W 7 8 1012.6 - 0.0 - - - - - - -
29/12:30am 24.3 NW 7 8 1012.6 - 0.0 - - - - - - -
29/12:00am 24.0 NNW 6 9 1012.8 - 0.0 - - - - - - -
 
Date/Time
EST
Temp

°C
Wind Pressure Rain
since 9am
mm
Weather Cloud Vis
km
Sea
Height
m
Swell
Dir
 
Speed
knots
Gust
knots
hPa Trend Height
m
Period
s
Dir
28/11:30pm 23.8 N 6 7 1013.2 - 0.0 - - - - - - -
28/11:00pm 23.3 N 5 6 1013.4 - 0.0 - - - - - - -
28/10:30pm 23.5 N 2 4 1013.6 - 0.0 - - - - - - -
28/10:00pm 23.9 NNE 3 4 1013.8 - 0.0 - - - - - - -
28/09:30pm 24.3 NNE 7 9 1013.6 - 0.0 - - - - - - -
28/09:00pm 24.5 NE 7 10 1013.4 - 0.0 - - - - - - -
28/08:30pm 24.8 NE 8 10 1013.1 - 0.0 - - - - - - -
28/08:00pm 25.1 NE 7 11 1012.9 - 0.0 - - - - - - -
28/07:30pm 25.5 NE 8 11 1012.6 - 0.0 - - - - - - -
28/07:00pm 26.0 NE 8 12 1012.5 - 0.0 - - - - - - -
28/06:30pm 26.5 NNE 10 14 1012.3 - 0.0 - - - - - - -
28/06:00pm 27.1 NNE 11 15 1012.1 - 0.0 - - - - - - -
28/05:30pm 27.6 N 11 15 1011.9 - 0.0 - - - - - - -
28/05:00pm 27.8 N 13 17 1011.7 - 0.0 - - - - - - -
28/04:30pm 28.5 N 13 18 1011.8 - 0.0 - - - - - - -
28/04:00pm 28.8 N 12 17 1011.9 - 0.0 - - - - - - -
28/03:30pm 29.3 N 12 17 1012.1 - 0.0 - - - - - - -
28/03:00pm 29.6 N 15 18 1012.3 - 0.0 - - - - - - -
28/02:30pm 31.1 N 13 19 1012.6 - 0.0 - - - - - - -
28/02:00pm 30.5 N 16 21 1012.7 - 0.0 - - - - - - -
28/01:30pm 31.9 N 14 20 1013.0 - 0.0 - - - - - - -
28/01:00pm 32.8 N 14 20 1013.4 - 0.0 - - - - - - -
28/12:30pm 32.2 NNE 11 17 1013.8 - 0.0 - - - - - - -
28/12:00pm 32.6 NNW 13 16 1014.0 - 0.0 - - - - - - -
28/11:30am 32.0 N 9 14 1014.4 - 0.0 - - - - - - -
28/11:00am 33.0 ENE 5 10 1014.6 - 0.0 - - - - - - -
28/10:30am 31.5 ESE 7 11 1014.7 - 0.0 - - - - - - -
28/10:00am 29.6 SE 9 11 1014.9 - 0.0 - - - - - - -
28/09:30am 28.9 ESE 11 16 1014.9 - 0.0 - - - - - - -
28/09:00am 28.5 ESE 13 19 1014.6 - 0.0 - - - - - - -
28/08:30am 27.7 SE 10 15 1014.4 - 0.0 - - - - - - -
28/08:00am 27.3 SE 9 14 1014.1 - 0.0 - - - - - - -
28/07:30am 26.5 SE 8 12 1013.9 - 0.0 - - - - - - -
28/07:00am 25.4 SE 7 10 1013.6 - 0.0 - - - - - - -
28/06:30am 24.8 SSE 7 10 1013.3 - 0.0 - - - - - - -
28/06:00am 24.8 SSE 7 10 1012.9 - 0.0 - - - - - - -
28/05:30am 24.3 SE 6 8 1012.8 - 0.0 - - - - - - -
28/05:00am 23.4 SE 6 8 1012.6 - 0.0 - - - - - - -
28/04:30am 22.4 SE 5 8 1012.5 - 0.0 - - - - - - -
28/04:00am 22.4 SE 6 8 1012.4 - 0.0 - - - - - - -
28/03:30am 21.8 SE 5 7 1012.6 - 0.0 - - - - - - -
28/03:00am 21.7 ESE 5 6 1012.9 - 0.0 - - - - - - -
28/02:30am 20.9 SE 5 6 1012.9 - 0.0 - - - - - - -
28/02:00am 23.8 SSE 6 8 1013.0 - 0.0 - - - - - - -
28/01:30am 22.6 SSE 5 9 1013.3 - 0.0 - - - - - - -
28/01:00am 23.3 SSE 5 7 1013.4 - 0.0 - - - - - - -
28/12:30am 19.1 SSE 4 6 1013.7 - 0.0 - - - - - - -
28/12:00am 20.3 ESE 3 4 1014.0 - 0.0 - - - - - - -
 
Date/Time
EST
Temp

°C
Wind Pressure Rain
since 9am
mm
Weather Cloud Vis
km
Sea
Height
m
Swell
Dir
 
Speed
knots
Gust
knots
hPa Trend Height
m
Period
s
Dir
27/11:30pm 20.5 NE 4 5 1014.1 - 0.0 - - - - - - -
27/11:00pm 20.4 NNE 4 5 1014.1 - 0.0 - - - - - - -
27/10:30pm 21.3 CALM 0 0 1014.0 - 0.0 - - - - - - -
27/10:00pm 22.0 CALM 0 0 1013.8 - 0.0 - - - - - - -
27/09:30pm 22.6 CALM 0 0 1013.6 - 0.0 - - - - - - -
27/09:00pm 22.8 ENE 3 3 1013.2 - 0.0 - - - - - - -

Other Formats:

Comma delimited format used in spreadsheet applications
http://www.bom.gov.au/fwo/IDQ60701/IDQ60701.94254.axf

JavaScript Object Notation format (JSON) in row-major order
http://www.bom.gov.au/fwo/IDQ60701/IDQ60701.94254.json